sensor_id;sensor_type;location;lat;lon;timestamp;pressure;altitude;pressure_sealevel;temperature;humidity
64352;BME280;50680;52.626;-8.668;2024-01-30T00:01:17;102744.91;;;-0.29;100.00
64352;BME280;50680;52.626;-8.668;2024-01-30T00:03:44;102733.78;;;-0.27;100.00
64352;BME280;50680;52.626;-8.668;2024-01-30T00:06:11;102735.50;;;-0.27;100.00
64352;BME280;50680;52.626;-8.668;2024-01-30T00:08:39;102750.91;;;-0.30;100.00
64352;BME280;50680;52.626;-8.668;2024-01-30T00:11:07;102749.09;;;-0.34;100.00
64352;BME280;50680;52.626;-8.668;2024-01-30T00:13:34;102755.06;;;-0.37;100.00
64352;BME280;50680;52.626;-8.668;2024-01-30T00:16:01;102759.31;;;-0.39;100.00
64352;BME280;50680;52.626;-8.668;2024-01-30T00:18:28;102765.28;;;-0.42;100.00
64352;BME280;50680;52.626;-8.668;2024-01-30T00:20:56;102760.00;;;-0.48;100.00
64352;BME280;50680;52.626;-8.668;2024-01-30T00:23:22;102765.03;;;-0.54;100.00
64352;BME280;50680;52.626;-8.668;2024-01-30T00:25:50;102770.09;;;-0.60;100.00
64352;BME280;50680;52.626;-8.668;2024-01-30T00:28:17;102768.25;;;-0.64;100.00
64352;BME280;50680;52.626;-8.668;2024-01-30T00:30:44;102771.63;;;-0.68;100.00
64352;BME280;50680;52.626;-8.668;2024-01-30T00:33:11;102770.72;;;-0.70;100.00
64352;BME280;50680;52.626;-8.668;2024-01-30T00:35:39;102769.75;;;-0.76;100.00
64352;BME280;50680;52.626;-8.668;2024-01-30T00:38:06;102770.50;;;-0.81;100.00
64352;BME280;50680;52.626;-8.668;2024-01-30T00:40:34;102763.56;;;-0.84;100.00
64352;BME280;50680;52.626;-8.668;2024-01-30T00:43:01;102764.28;;;-0.91;100.00
64352;BME280;50680;52.626;-8.668;2024-01-30T00:45:28;102752.19;;;-0.95;100.00
64352;BME280;50680;52.626;-8.668;2024-01-30T00:47:55;102760.06;;;-0.87;100.00
64352;BME280;50680;52.626;-8.668;2024-01-30T00:50:22;102767.84;;;-0.86;100.00
64352;BME280;50680;52.626;-8.668;2024-01-30T00:52:49;102767.75;;;-0.89;100.00
64352;BME280;50680;52.626;-8.668;2024-01-30T00:55:17;102773.75;;;-0.90;100.00
64352;BME280;50680;52.626;-8.668;2024-01-30T00:57:44;102768.50;;;-0.95;100.00
64352;BME280;50680;52.626;-8.668;2024-01-30T01:00:12;102767.50;;;-1.01;100.00
64352;BME280;50680;52.626;-8.668;2024-01-30T01:02:39;102765.69;;;-1.05;100.00
64352;BME280;50680;52.626;-8.668;2024-01-30T01:05:06;102771.63;;;-1.08;100.00
64352;BME280;50680;52.626;-8.668;2024-01-30T01:07:34;102777.66;;;-1.07;100.00
64352;BME280;50680;52.626;-8.668;2024-01-30T01:10:01;102772.38;;;-1.14;100.00
64352;BME280;50680;52.626;-8.668;2024-01-30T01:12:29;102781.81;;;-1.14;100.00
64352;BME280;50680;52.626;-8.668;2024-01-30T01:14:56;102783.34;;;-1.22;100.00
64352;BME280;50680;52.626;-8.668;2024-01-30T01:17:24;102786.66;;;-1.28;100.00
64352;BME280;50680;52.626;-8.668;2024-01-30T01:19:51;102786.53;;;-1.33;100.00
64352;BME280;50680;52.626;-8.668;2024-01-30T01:22:19;102794.22;;;-1.34;100.00
64352;BME280;50680;52.626;-8.668;2024-01-30T01:24:46;102783.75;;;-1.40;100.00
64352;BME280;50680;52.626;-8.668;2024-01-30T01:27:13;102794.06;;;-1.40;100.00
64352;BME280;50680;52.626;-8.668;2024-01-30T01:29:40;102794.91;;;-1.41;100.00
64352;BME280;50680;52.626;-8.668;2024-01-30T01:32:07;102794.06;;;-1.40;100.00
64352;BME280;50680;52.626;-8.668;2024-01-30T01:34:34;102798.50;;;-1.35;100.00
64352;BME280;50680;52.626;-8.668;2024-01-30T01:37:01;102795.88;;;-1.36;100.00
64352;BME280;50680;52.626;-8.668;2024-01-30T01:39:28;102796.63;;;-1.40;100.00
64352;BME280;50680;52.626;-8.668;2024-01-30T01:41:55;102797.56;;;-1.38;100.00
64352;BME280;50680;52.626;-8.668;2024-01-30T01:44:22;102800.09;;;-1.40;100.00
64352;BME280;50680;52.626;-8.668;2024-01-30T01:46:51;102800.88;;;-1.42;100.00
64352;BME280;50680;52.626;-8.668;2024-01-30T01:49:18;102802.47;;;-1.47;100.00
64352;BME280;50680;52.626;-8.668;2024-01-30T01:51:47;102811.03;;;-1.48;100.00
64352;BME280;50680;52.626;-8.668;2024-01-30T01:54:15;102810.91;;;-1.53;100.00
64352;BME280;50680;52.626;-8.668;2024-01-30T01:56:43;102811.75;;;-1.53;100.00
64352;BME280;50680;52.626;-8.668;2024-01-30T01:59:10;102813.47;;;-1.53;100.00
64352;BME280;50680;52.626;-8.668;2024-01-30T02:01:38;102809.31;;;-1.48;100.00
64352;BME280;50680;52.626;-8.668;2024-01-30T02:04:06;102803.28;;;-1.50;100.00
64352;BME280;50680;52.626;-8.668;2024-01-30T02:06:34;102803.97;;;-1.57;100.00
64352;BME280;50680;52.626;-8.668;2024-01-30T02:09:01;102808.13;;;-1.62;100.00
64352;BME280;50680;52.626;-8.668;2024-01-30T02:11:28;102814.94;;;-1.64;100.00
64352;BME280;50680;52.626;-8.668;2024-01-30T02:13:55;102808.81;;;-1.68;100.00
64352;BME280;50680;52.626;-8.668;2024-01-30T02:16:23;102815.63;;;-1.70;100.00
64352;BME280;50680;52.626;-8.668;2024-01-30T02:18:50;102805.34;;;-1.70;100.00
64352;BME280;50680;52.626;-8.668;2024-01-30T02:21:18;102808.81;;;-1.68;100.00
64352;BME280;50680;52.626;-8.668;2024-01-30T02:23:46;102811.38;;;-1.68;100.00
64352;BME280;50680;52.626;-8.668;2024-01-30T02:26:13;102824.31;;;-1.65;100.00
64352;BME280;50680;52.626;-8.668;2024-01-30T02:28:41;102832.09;;;-1.63;100.00
64352;BME280;50680;52.626;-8.668;2024-01-30T02:31:08;102827.75;;;-1.66;100.00
64352;BME280;50680;52.626;-8.668;2024-01-30T02:33:35;102821.63;;;-1.71;100.00
64352;BME280;50680;52.626;-8.668;2024-01-30T02:36:02;102822.34;;;-1.75;100.00
64352;BME280;50680;52.626;-8.668;2024-01-30T02:38:29;102825.06;;;-1.71;100.00
64352;BME280;50680;52.626;-8.668;2024-01-30T02:40:56;102824.31;;;-1.65;100.00
64352;BME280;50680;52.626;-8.668;2024-01-30T02:43:23;102823.34;;;-1.70;100.00
64352;BME280;50680;52.626;-8.668;2024-01-30T02:45:50;102826.75;;;-1.71;100.00
64352;BME280;50680;52.626;-8.668;2024-01-30T02:48:17;102830.97;;;-1.73;100.00
64352;BME280;50680;52.626;-8.668;2024-01-30T02:50:44;102832.63;;;-1.75;100.00
64352;BME280;50680;52.626;-8.668;2024-01-30T02:53:12;102836.81;;;-1.79;100.00
64352;BME280;50680;52.626;-8.668;2024-01-30T02:55:39;102832.50;;;-1.81;100.00
64352;BME280;50680;52.626;-8.668;2024-01-30T02:58:07;102832.41;;;-1.84;100.00
64352;BME280;50680;52.626;-8.668;2024-01-30T03:00:34;102832.31;;;-1.87;100.00
64352;BME280;50680;52.626;-8.668;2024-01-30T03:03:02;102839.13;;;-1.90;100.00
64352;BME280;50680;52.626;-8.668;2024-01-30T03:05:29;102840.03;;;-1.87;100.00
64352;BME280;50680;52.626;-8.668;2024-01-30T03:07:56;102845.13;;;-1.89;100.00
64352;BME280;50680;52.626;-8.668;2024-01-30T03:10:23;102845.13;;;-1.89;100.00
64352;BME280;50680;52.626;-8.668;2024-01-30T03:12:50;102847.84;;;-1.84;100.00
64352;BME280;50680;52.626;-8.668;2024-01-30T03:15:17;102855.69;;;-1.80;100.00
64352;BME280;50680;52.626;-8.668;2024-01-30T03:17:44;102860.09;;;-1.74;100.00
64352;BME280;50680;52.626;-8.668;2024-01-30T03:20:11;102856.09;;;-1.64;100.00
64352;BME280;50680;52.626;-8.668;2024-01-30T03:22:38;102862.41;;;-1.52;100.00
64352;BME280;50680;52.626;-8.668;2024-01-30T03:25:05;102852.44;;;-1.38;100.00
64352;BME280;50680;52.626;-8.668;2024-01-30T03:27:33;102857.13;;;-1.21;100.00
64352;BME280;50680;52.626;-8.668;2024-01-30T03:30:00;102860.94;;;-1.07;100.00
64352;BME280;50680;52.626;-8.668;2024-01-30T03:32:27;102857.72;;;-0.97;100.00
64352;BME280;50680;52.626;-8.668;2024-01-30T03:34:54;102863.16;;;-0.84;100.00
64352;BME280;50680;52.626;-8.668;2024-01-30T03:37:21;102861.75;;;-0.70;100.00
64352;BME280;50680;52.626;-8.668;2024-01-30T03:39:48;102856.81;;;-0.59;100.00
64352;BME280;50680;52.626;-8.668;2024-01-30T03:42:16;102867.38;;;-0.48;100.00
64352;BME280;50680;52.626;-8.668;2024-01-30T03:44:43;102883.00;;;-0.41;100.00
64352;BME280;50680;52.626;-8.668;2024-01-30T03:47:10;102870.25;;;-0.34;100.00
64352;BME280;50680;52.626;-8.668;2024-01-30T03:49:37;102878.19;;;-0.24;100.00
64352;BME280;50680;52.626;-8.668;2024-01-30T03:52:04;102876.56;;;-0.20;100.00
64352;BME280;50680;52.626;-8.668;2024-01-30T03:54:31;102881.84;;;-0.12;100.00
64352;BME280;50680;52.626;-8.668;2024-01-30T03:56:58;102879.34;;;-0.09;100.00
64352;BME280;50680;52.626;-8.668;2024-01-30T03:59:25;102882.09;;;-0.02;100.00
64352;BME280;50680;52.626;-8.668;2024-01-30T04:01:52;102884.78;;;0.05;100.00
64352;BME280;50680;52.626;-8.668;2024-01-30T04:04:20;102882.34;;;0.12;100.00
64352;BME280;50680;52.626;-8.668;2024-01-30T04:06:47;102886.72;;;0.16;100.00
64352;BME280;50680;52.626;-8.668;2024-01-30T04:09:14;102893.69;;;0.22;100.00
64352;BME280;50680;52.626;-8.668;2024-01-30T04:11:41;102876.47;;;0.20;100.00
64352;BME280;50680;52.626;-8.668;2024-01-30T04:14:09;102893.09;;;0.35;100.00
64352;BME280;50680;52.626;-8.668;2024-01-30T04:16:36;102885.41;;;0.39;100.00
64352;BME280;50680;52.626;-8.668;2024-01-30T04:19:03;102883.75;;;0.42;100.00
64352;BME280;50680;52.626;-8.668;2024-01-30T04:21:30;102884.72;;;0.47;100.00
64352;BME280;50680;52.626;-8.668;2024-01-30T04:23:57;102891.66;;;0.51;100.00
64352;BME280;50680;52.626;-8.668;2024-01-30T04:26:24;102891.69;;;0.53;100.00
64352;BME280;50680;52.626;-8.668;2024-01-30T04:28:51;102880.53;;;0.54;100.00
64352;BME280;50680;52.626;-8.668;2024-01-30T04:31:18;102890.84;;;0.54;100.00
64352;BME280;50680;52.626;-8.668;2024-01-30T04:33:46;102889.16;;;0.56;100.00
64352;BME280;50680;52.626;-8.668;2024-01-30T04:36:13;102890.78;;;0.51;100.00
64352;BME280;50680;52.626;-8.668;2024-01-30T04:38:40;102896.97;;;0.59;100.00
64352;BME280;50680;52.626;-8.668;2024-01-30T04:41:07;102897.00;;;0.62;100.00
64352;BME280;50680;52.626;-8.668;2024-01-30T04:43:34;102905.63;;;0.63;100.00
64352;BME280;50680;52.626;-8.668;2024-01-30T04:46:01;102911.53;;;0.57;100.00
64352;BME280;50680;52.626;-8.668;2024-01-30T04:48:28;102908.00;;;0.52;100.00
64352;BME280;50680;52.626;-8.668;2024-01-30T04:50:56;102920.91;;;0.52;100.00
64352;BME280;50680;52.626;-8.668;2024-01-30T04:53:23;102921.84;;;0.57;100.00
64352;BME280;50680;52.626;-8.668;2024-01-30T04:55:50;102924.53;;;0.62;100.00
64352;BME280;50680;52.626;-8.668;2024-01-30T04:58:17;102931.44;;;0.63;100.00
64352;BME280;50680;52.626;-8.668;2024-01-30T05:00:44;102930.56;;;0.62;100.00
64352;BME280;50680;52.626;-8.668;2024-01-30T05:03:13;102921.91;;;0.60;100.00
64352;BME280;50680;52.626;-8.668;2024-01-30T05:05:40;102930.53;;;0.59;100.00
64352;BME280;50680;52.626;-8.668;2024-01-30T05:08:07;102934.75;;;0.57;100.00
64352;BME280;50680;52.626;-8.668;2024-01-30T05:10:34;102939.94;;;0.57;100.00
64352;BME280;50680;52.626;-8.668;2024-01-30T05:13:01;102932.38;;;0.66;100.00
64352;BME280;50680;52.626;-8.668;2024-01-30T05:15:28;102939.47;;;0.78;100.00
64352;BME280;50680;52.626;-8.668;2024-01-30T05:17:55;102954.28;;;0.88;100.00
64352;BME280;50680;52.626;-8.668;2024-01-30T05:20:23;102945.75;;;0.94;100.00
64352;BME280;50680;52.626;-8.668;2024-01-30T05:22:50;102962.06;;;0.93;100.00
64352;BME280;50680;52.626;-8.668;2024-01-30T05:25:17;102963.00;;;0.97;100.00
64352;BME280;50680;52.626;-8.668;2024-01-30T05:27:44;102964.84;;;1.02;100.00
64352;BME280;50680;52.626;-8.668;2024-01-30T05:30:13;102966.69;;;1.09;100.00
64352;BME280;50680;52.626;-8.668;2024-01-30T05:32:40;102968.50;;;1.17;100.00
64352;BME280;50680;52.626;-8.668;2024-01-30T05:35:07;102954.75;;;1.19;100.00
64352;BME280;50680;52.626;-8.668;2024-01-30T05:37:34;102963.44;;;1.21;100.00
64352;BME280;50680;52.626;-8.668;2024-01-30T05:40:02;102969.41;;;1.19;100.00
64352;BME280;50680;52.626;-8.668;2024-01-30T05:42:29;102970.31;;;1.22;100.00
64352;BME280;50680;52.626;-8.668;2024-01-30T05:44:56;102980.69;;;1.24;100.00
64352;BME280;50680;52.626;-8.668;2024-01-30T05:47:24;102984.16;;;1.26;100.00
64352;BME280;50680;52.626;-8.668;2024-01-30T05:49:51;102987.63;;;1.26;100.00
64352;BME280;50680;52.626;-8.668;2024-01-30T05:52:18;102990.22;;;1.28;100.00
64352;BME280;50680;52.626;-8.668;2024-01-30T05:54:45;102983.38;;;1.30;100.00
64352;BME280;50680;52.626;-8.668;2024-01-30T05:57:12;102984.31;;;1.35;100.00
64352;BME280;50680;52.626;-8.668;2024-01-30T05:59:39;102985.22;;;1.37;100.00
64352;BME280;50680;52.626;-8.668;2024-01-30T06:02:07;102992.16;;;1.41;100.00
64352;BME280;50680;52.626;-8.668;2024-01-30T06:04:35;102998.22;;;1.43;100.00
64352;BME280;50680;52.626;-8.668;2024-01-30T06:07:02;102998.25;;;1.46;100.00
64352;BME280;50680;52.626;-8.668;2024-01-30T06:09:29;102994.88;;;1.49;100.00
64352;BME280;50680;52.626;-8.668;2024-01-30T06:11:56;102995.69;;;1.48;100.00
64352;BME280;50680;52.626;-8.668;2024-01-30T06:14:23;102995.63;;;1.43;100.00
64352;BME280;50680;52.626;-8.668;2024-01-30T06:16:51;102992.09;;;1.38;100.00
64352;BME280;50680;52.626;-8.668;2024-01-30T06:19:18;102995.53;;;1.36;100.00
64352;BME280;50680;52.626;-8.668;2024-01-30T06:21:45;102998.91;;;1.33;100.00
64352;BME280;50680;52.626;-8.668;2024-01-30T06:24:12;103005.78;;;1.31;100.00
64352;BME280;50680;52.626;-8.668;2024-01-30T06:26:39;103002.34;;;1.32;100.00
64352;BME280;50680;52.626;-8.668;2024-01-30T06:29:06;103004.91;;;1.30;100.00
64352;BME280;50680;52.626;-8.668;2024-01-30T06:31:40;103007.50;;;1.30;100.00
64352;BME280;50680;52.626;-8.668;2024-01-30T06:34:11;103005.72;;;1.28;100.00
64352;BME280;50680;52.626;-8.668;2024-01-30T06:36:39;103025.63;;;1.32;100.00
64352;BME280;50680;52.626;-8.668;2024-01-30T06:39:06;103029.97;;;1.36;100.00
64352;BME280;50680;52.626;-8.668;2024-01-30T06:41:34;103026.56;;;1.37;100.00
64352;BME280;50680;52.626;-8.668;2024-01-30T06:44:04;103032.63;;;1.39;100.00
64352;BME280;50680;52.626;-8.668;2024-01-30T06:46:33;103034.44;;;1.45;100.00
64352;BME280;50680;52.626;-8.668;2024-01-30T06:49:01;103035.34;;;1.48;100.00
64352;BME280;50680;52.626;-8.668;2024-01-30T06:51:28;103031.94;;;1.49;100.00
64352;BME280;50680;52.626;-8.668;2024-01-30T06:53:55;103034.47;;;1.48;100.00
64352;BME280;50680;52.626;-8.668;2024-01-30T06:56:22;103036.28;;;1.54;100.00
64352;BME280;50680;52.626;-8.668;2024-01-30T06:58:50;103033.69;;;1.54;100.00
64352;BME280;50680;52.626;-8.668;2024-01-30T07:01:17;103034.66;;;1.59;100.00
64352;BME280;50680;52.626;-8.668;2024-01-30T07:03:44;103038.13;;;1.59;100.00
64352;BME280;50680;52.626;-8.668;2024-01-30T07:06:12;103052.81;;;1.62;100.00
64352;BME280;50680;52.626;-8.668;2024-01-30T07:08:39;103038.31;;;1.72;100.00
64352;BME280;50680;52.626;-8.668;2024-01-30T07:11:06;103046.06;;;1.72;100.00
64352;BME280;50680;52.626;-8.668;2024-01-30T07:13:34;103055.63;;;1.77;100.00
64352;BME280;50680;52.626;-8.668;2024-01-30T07:16:01;103063.44;;;1.80;100.00
64352;BME280;50680;52.626;-8.668;2024-01-30T07:18:28;103062.56;;;1.81;100.00
64352;BME280;50680;52.626;-8.668;2024-01-30T07:20:55;103072.97;;;1.84;100.00
64352;BME280;50680;52.626;-8.668;2024-01-30T07:23:22;103066.03;;;1.83;100.00
64352;BME280;50680;52.626;-8.668;2024-01-30T07:25:49;103066.03;;;1.83;100.00
64352;BME280;50680;52.626;-8.668;2024-01-30T07:28:17;103066.88;;;1.81;100.00
64352;BME280;50680;52.626;-8.668;2024-01-30T07:30:44;103064.31;;;1.82;100.00
64352;BME280;50680;52.626;-8.668;2024-01-30T07:33:12;103068.69;;;1.86;100.00
64352;BME280;50680;52.626;-8.668;2024-01-30T07:35:40;103066.97;;;1.85;100.00
64352;BME280;50680;52.626;-8.668;2024-01-30T07:38:07;103063.50;;;1.86;100.00
64352;BME280;50680;52.626;-8.668;2024-01-30T07:40:34;103054.88;;;1.84;100.00
64352;BME280;50680;52.626;-8.668;2024-01-30T07:43:01;103075.75;;;1.97;100.00
64352;BME280;50680;52.626;-8.668;2024-01-30T07:45:30;103076.75;;;2.06;100.00
64352;BME280;50680;52.626;-8.668;2024-01-30T07:48:00;103071.66;;;2.13;100.00
64352;BME280;50680;52.626;-8.668;2024-01-30T07:50:27;103087.19;;;2.11;100.00
64352;BME280;50680;52.626;-8.668;2024-01-30T07:52:59;103083.75;;;2.14;100.00
64352;BME280;50680;52.626;-8.668;2024-01-30T07:55:26;103085.50;;;2.15;100.00
64352;BME280;50680;52.626;-8.668;2024-01-30T07:57:58;103088.94;;;2.14;100.00
64352;BME280;50680;52.626;-8.668;2024-01-30T08:00:26;103097.56;;;2.14;100.00
64352;BME280;50680;52.626;-8.668;2024-01-30T08:02:53;103098.50;;;2.19;100.00
64352;BME280;50680;52.626;-8.668;2024-01-30T08:05:22;103112.25;;;2.15;100.00
64352;BME280;50680;52.626;-8.668;2024-01-30T08:07:50;103110.50;;;2.14;100.00
64352;BME280;50680;52.626;-8.668;2024-01-30T08:10:18;103110.53;;;2.16;100.00
64352;BME280;50680;52.626;-8.668;2024-01-30T08:12:45;103116.53;;;2.13;100.00
64352;BME280;50680;52.626;-8.668;2024-01-30T08:15:13;103126.84;;;2.10;100.00
64352;BME280;50680;52.626;-8.668;2024-01-30T08:17:40;103129.50;;;2.15;100.00
64352;BME280;50680;52.626;-8.668;2024-01-30T08:20:07;103133.75;;;2.13;100.00
64352;BME280;50680;52.626;-8.668;2024-01-30T08:22:35;103128.59;;;2.13;100.00
64352;BME280;50680;52.626;-8.668;2024-01-30T08:25:02;103134.59;;;2.10;100.00
64352;BME280;50680;52.626;-8.668;2024-01-30T08:27:29;103138.00;;;2.06;100.00
64352;BME280;50680;52.626;-8.668;2024-01-30T08:29:56;103139.72;;;2.07;100.00
64352;BME280;50680;52.626;-8.668;2024-01-30T08:32:23;103141.53;;;2.13;100.00
64352;BME280;50680;52.626;-8.668;2024-01-30T08:34:50;103148.47;;;2.15;100.00
64352;BME280;50680;52.626;-8.668;2024-01-30T08:37:18;103149.41;;;2.19;100.00
64352;BME280;50680;52.626;-8.668;2024-01-30T08:39:45;103156.31;;;2.18;100.00
64352;BME280;50680;52.626;-8.668;2024-01-30T08:42:12;103160.59;;;2.19;100.00
64352;BME280;50680;52.626;-8.668;2024-01-30T08:44:39;103157.09;;;2.14;100.00
64352;BME280;50680;52.626;-8.668;2024-01-30T08:47:06;103151.81;;;2.08;100.00
64352;BME280;50680;52.626;-8.668;2024-01-30T08:49:33;103156.84;;;1.99;100.00
64352;BME280;50680;52.626;-8.668;2024-01-30T08:52:00;103166.19;;;1.89;100.00
64352;BME280;50680;52.626;-8.668;2024-01-30T08:54:27;103166.81;;;1.76;100.00
64352;BME280;50680;52.626;-8.668;2024-01-30T08:56:54;103170.94;;;1.66;100.00
64352;BME280;50680;52.626;-8.668;2024-01-30T08:59:22;103170.88;;;1.60;100.00
64352;BME280;50680;52.626;-8.668;2024-01-30T09:01:50;103164.81;;;1.58;100.00
64352;BME280;50680;52.626;-8.668;2024-01-30T09:04:32;103172.50;;;1.55;100.00
64352;BME280;50680;52.626;-8.668;2024-01-30T09:06:59;103188.22;;;1.67;100.00
64352;BME280;50680;52.626;-8.668;2024-01-30T09:09:27;103188.66;;;1.93;100.00
64352;BME280;50680;52.626;-8.668;2024-01-30T09:11:54;103190.00;;;2.23;100.00
64352;BME280;50680;52.626;-8.668;2024-01-30T09:14:21;103188.81;;;2.60;100.00
64352;BME280;50680;52.626;-8.668;2024-01-30T09:16:48;103188.41;;;2.95;100.00
64352;BME280;50680;52.626;-8.668;2024-01-30T09:19:15;103186.16;;;3.25;100.00
64352;BME280;50680;52.626;-8.668;2024-01-30T09:21:43;103185.63;;;3.53;100.00
64352;BME280;50680;52.626;-8.668;2024-01-30T09:24:10;103184.97;;;3.81;100.00
64352;BME280;50680;52.626;-8.668;2024-01-30T09:26:37;103181.75;;;4.03;100.00
64352;BME280;50680;52.626;-8.668;2024-01-30T09:29:07;103179.34;;;4.31;100.00
64352;BME280;50680;52.626;-8.668;2024-01-30T09:31:34;103181.94;;;4.36;100.00
64352;BME280;50680;52.626;-8.668;2024-01-30T09:34:01;103185.41;;;4.35;100.00
64352;BME280;50680;52.626;-8.668;2024-01-30T09:36:28;103186.25;;;4.32;100.00
64352;BME280;50680;52.626;-8.668;2024-01-30T09:38:55;103187.06;;;4.25;100.00
64352;BME280;50680;52.626;-8.668;2024-01-30T09:41:24;103167.94;;;4.13;100.00
64352;BME280;50680;52.626;-8.668;2024-01-30T09:43:53;103167.06;;;4.11;100.00
64352;BME280;50680;52.626;-8.668;2024-01-30T09:46:22;103178.44;;;4.29;100.00
64352;BME280;50680;52.626;-8.668;2024-01-30T09:48:55;103177.69;;;4.45;100.00
64352;BME280;50680;52.626;-8.668;2024-01-30T09:51:22;103172.59;;;4.62;100.00
64352;BME280;50680;52.626;-8.668;2024-01-30T09:53:50;103172.66;;;4.76;100.00
64352;BME280;50680;52.626;-8.668;2024-01-30T09:56:17;103175.31;;;4.92;100.00
64352;BME280;50680;52.626;-8.668;2024-01-30T09:58:44;103161.50;;;5.00;100.00
64352;BME280;50680;52.626;-8.668;2024-01-30T10:01:11;103164.06;;;5.03;100.00
64352;BME280;50680;52.626;-8.668;2024-01-30T10:03:38;103157.16;;;5.08;100.00
64352;BME280;50680;52.626;-8.668;2024-01-30T10:06:06;103158.06;;;5.09;100.00
64352;BME280;50680;52.626;-8.668;2024-01-30T10:08:33;103153.72;;;5.19;100.00
64352;BME280;50680;52.626;-8.668;2024-01-30T10:11:00;103147.72;;;5.37;100.00
64352;BME280;50680;52.626;-8.668;2024-01-30T10:13:28;103148.59;;;5.54;100.00
64352;BME280;50680;52.626;-8.668;2024-01-30T10:15:55;103159.03;;;5.71;100.00
64352;BME280;50680;52.626;-8.668;2024-01-30T10:18:23;103163.34;;;5.83;100.00
64352;BME280;50680;52.626;-8.668;2024-01-30T10:20:51;103153.81;;;5.94;100.00
64352;BME280;50680;52.626;-8.668;2024-01-30T10:23:18;103152.97;;;6.09;100.00
64352;BME280;50680;52.626;-8.668;2024-01-30T10:25:46;103152.06;;;6.22;100.00
64352;BME280;50680;52.626;-8.668;2024-01-30T10:28:14;103152.91;;;6.28;100.00
64352;BME280;50680;52.626;-8.668;2024-01-30T10:30:41;103160.72;;;6.35;100.00
64352;BME280;50680;52.626;-8.668;2024-01-30T10:33:08;103165.03;;;6.49;100.00
64352;BME280;50680;52.626;-8.668;2024-01-30T10:35:35;103161.50;;;6.62;100.00
64352;BME280;50680;52.626;-8.668;2024-01-30T10:38:03;103167.53;;;6.78;100.00
64352;BME280;50680;52.626;-8.668;2024-01-30T10:40:33;103171.84;;;6.90;100.00
64352;BME280;50680;52.626;-8.668;2024-01-30T10:43:03;103170.91;;;7.05;100.00
64352;BME280;50680;52.626;-8.668;2024-01-30T10:45:31;103175.16;;;7.23;100.00
64352;BME280;50680;52.626;-8.668;2024-01-30T10:47:59;103175.91;;;7.42;100.00
64352;BME280;50680;52.626;-8.668;2024-01-30T10:50:27;103173.19;;;7.62;100.00
64352;BME280;50680;52.626;-8.668;2024-01-30T10:52:55;103173.91;;;7.78;100.00
64352;BME280;50680;52.626;-8.668;2024-01-30T10:55:25;103173.78;;;7.93;100.00
64352;BME280;50680;52.626;-8.668;2024-01-30T10:57:55;103178.91;;;8.05;100.00
64352;BME280;50680;52.626;-8.668;2024-01-30T11:00:22;103174.53;;;8.09;100.00
64352;BME280;50680;52.626;-8.668;2024-01-30T11:02:51;103172.75;;;8.11;100.00
64352;BME280;50680;52.626;-8.668;2024-01-30T11:05:25;103183.22;;;8.11;100.00
64352;BME280;50680;52.626;-8.668;2024-01-30T11:08:09;103189.34;;;8.08;100.00
64352;BME280;50680;52.626;-8.668;2024-01-30T11:10:47;103185.13;;;7.90;100.00
64352;BME280;50680;52.626;-8.668;2024-01-30T11:13:14;103181.69;;;7.85;100.00
64352;BME280;50680;52.626;-8.668;2024-01-30T11:15:41;103182.63;;;7.75;100.00
64352;BME280;50680;52.626;-8.668;2024-01-30T11:18:08;103181.03;;;7.60;100.00
64352;BME280;50680;52.626;-8.668;2024-01-30T11:20:35;103175.88;;;7.51;100.00
64352;BME280;50680;52.626;-8.668;2024-01-30T11:23:03;103179.38;;;7.42;100.00
64352;BME280;50680;52.626;-8.668;2024-01-30T11:25:33;103179.38;;;7.45;100.00
64352;BME280;50680;52.626;-8.668;2024-01-30T11:28:00;103175.03;;;7.44;100.00
64352;BME280;50680;52.626;-8.668;2024-01-30T11:30:29;103175.03;;;7.46;100.00
64352;BME280;50680;52.626;-8.668;2024-01-30T11:33:05;103174.19;;;7.39;100.00
64352;BME280;50680;52.626;-8.668;2024-01-30T11:35:35;103172.44;;;7.46;100.00
64352;BME280;50680;52.626;-8.668;2024-01-30T11:38:03;103166.38;;;7.41;100.00
64352;BME280;50680;52.626;-8.668;2024-01-30T11:40:31;103162.91;;;7.37;100.00
64352;BME280;50680;52.626;-8.668;2024-01-30T11:43:01;103156.81;;;7.37;100.00
64352;BME280;50680;52.626;-8.668;2024-01-30T11:45:29;103152.50;;;7.31;100.00
64352;BME280;50680;52.626;-8.668;2024-01-30T11:47:57;103150.75;;;7.28;100.00
64352;BME280;50680;52.626;-8.668;2024-01-30T11:50:27;103136.00;;;7.26;100.00
64352;BME280;50680;52.626;-8.668;2024-01-30T11:52:54;103125.59;;;7.21;100.00
64352;BME280;50680;52.626;-8.668;2024-01-30T11:55:23;103132.47;;;7.33;100.00
64352;BME280;50680;52.626;-8.668;2024-01-30T11:57:51;103132.38;;;7.47;100.00
64352;BME280;50680;52.626;-8.668;2024-01-30T12:00:18;103131.38;;;7.65;100.00
64352;BME280;50680;52.626;-8.668;2024-01-30T12:02:49;103135.69;;;7.70;100.00
64352;BME280;50680;52.626;-8.668;2024-01-30T12:05:18;103123.44;;;7.76;100.00
64352;BME280;50680;52.626;-8.668;2024-01-30T12:07:45;103118.97;;;7.90;100.00
64352;BME280;50680;52.626;-8.668;2024-01-30T12:10:14;103113.75;;;7.88;100.00
64352;BME280;50680;52.626;-8.668;2024-01-30T12:12:44;103115.50;;;7.89;100.00
64352;BME280;50680;52.626;-8.668;2024-01-30T12:15:13;103116.38;;;7.87;100.00
64352;BME280;50680;52.626;-8.668;2024-01-30T12:17:40;103108.53;;;7.88;100.00
64352;BME280;50680;52.626;-8.668;2024-01-30T12:20:11;103099.81;;;7.89;100.00
64352;BME280;50680;52.626;-8.668;2024-01-30T12:22:40;103106.75;;;7.90;100.00
64352;BME280;50680;52.626;-8.668;2024-01-30T12:25:08;103107.59;;;7.94;100.00
64352;BME280;50680;52.626;-8.668;2024-01-30T12:27:37;103101.47;;;7.97;100.00
64352;BME280;50680;52.626;-8.668;2024-01-30T12:30:08;103104.06;;;8.00;100.00
64352;BME280;50680;52.626;-8.668;2024-01-30T12:32:39;103095.28;;;8.08;100.00
64352;BME280;50680;52.626;-8.668;2024-01-30T12:35:14;103092.59;;;8.13;100.00
64352;BME280;50680;52.626;-8.668;2024-01-30T12:37:45;103090.84;;;8.15;100.00
64352;BME280;50680;52.626;-8.668;2024-01-30T12:40:16;103088.97;;;8.26;100.00